Alabama, New York
Current Conditions -  °F | °C
As of 10:54 PM on Wednesday 17 Dec 2014 (Local Time) from KBUF Reporting Station
Light Snow Light Snow  
Wind Chill: 18°   Ceiling: 3400
Heat Index: 30°   Visibility: 3mi
Dew Point: 25°   Wind: 17mph
Humidity: 82%   Direction: 250°WSW
Pressure: 29.99"   Gusts: 26mph
Location:  43.1°N, 78.39°W
Report Text: KBUF 180354Z 25015G23KT 3SM -SN FEW014 SCT019 OVC034 M01/M04 A2999 RMK AO2 PK WND 26026/0302 SLP163 P0000 T10111039
Loading
Personal Weather Stations






























Interactive Weather Map New forecast layout! Learn more

10-Day Weather Forecast

Advertisements
Track Severe Weather on mobile